Aviation Digital Data Service (ADDS)

Output produced by TAFs form (1720 UTC 18 January 2018)
found at http://aviationweather.gov/adds/tafs/
 
KPTW 181654Z AUTO 29012G23KT 9SM CLR M03/M14 A3005 RMK AO2 SLP179 T10331144
KRDG 181654Z AUTO 30007KT 10SM CLR A3005 RMK AO2 SLPNO $
KRDG 181720Z 1818/1918 30011KT P6SM SKC 
     FM182300 30007KT P6SM SKC 
     FM190600 26005KT P6SM FEW200
       
KLNS 181653Z 28007KT 10SM CLR M03/M13 A3007 RMK AO2 SLP189 T10331128
KLNS 181720Z 1818/1918 29009KT P6SM SKC WS019/32046KT 
     FM191500 31006KT P6SM SKC
       
KABE 181651Z 31011KT 10SM UP CLR M03/M14 A3004 RMK AO2 UPB42 SLP181 P0000 T10331144
KABE 181720Z 1818/1918 30011KT P6SM SKC 
     FM182300 31007KT P6SM SKC 
     FM190800 25008KT P6SM FEW160
       
KPNE 181654Z 31008G17KT 10SM CLR M01/M12 A3007 RMK AO2 SLP185 T10111122
KPNE 181720Z 1818/1918 30011G20KT P6SM SKC 
     FM182300 31008KT P6SM SKC 
     FM190500 27009KT P6SM SKC